sensor_id;sensor_type;location;lat;lon;timestamp;temperature;humidity
55135;DHT22;41031;44.750;11.308;2023-01-16T00:01:54;8.50;99.30
55135;DHT22;41031;44.750;11.308;2023-01-16T00:04:22;8.50;99.30
55135;DHT22;41031;44.750;11.308;2023-01-16T00:06:49;8.50;99.30
55135;DHT22;41031;44.750;11.308;2023-01-16T00:09:16;8.50;99.30
55135;DHT22;41031;44.750;11.308;2023-01-16T00:11:43;8.50;99.30
55135;DHT22;41031;44.750;11.308;2023-01-16T00:14:10;8.50;99.30
55135;DHT22;41031;44.750;11.308;2023-01-16T00:16:37;8.50;99.30
55135;DHT22;41031;44.750;11.308;2023-01-16T00:19:04;8.50;99.30
55135;DHT22;41031;44.750;11.308;2023-01-16T00:21:32;8.50;99.30
55135;DHT22;41031;44.750;11.308;2023-01-16T00:23:59;8.50;99.30
55135;DHT22;41031;44.750;11.308;2023-01-16T00:26:27;8.50;99.30
55135;DHT22;41031;44.750;11.308;2023-01-16T00:28:55;8.50;99.30
55135;DHT22;41031;44.750;11.308;2023-01-16T00:31:22;8.50;99.30
55135;DHT22;41031;44.750;11.308;2023-01-16T00:33:55;8.50;99.30
55135;DHT22;41031;44.750;11.308;2023-01-16T00:36:22;8.50;99.40
55135;DHT22;41031;44.750;11.308;2023-01-16T00:38:49;8.50;99.40
55135;DHT22;41031;44.750;11.308;2023-01-16T00:41:16;8.50;99.40
55135;DHT22;41031;44.750;11.308;2023-01-16T00:43:43;8.50;99.40
55135;DHT22;41031;44.750;11.308;2023-01-16T00:46:10;8.50;99.30
55135;DHT22;41031;44.750;11.308;2023-01-16T00:48:37;8.50;99.30
55135;DHT22;41031;44.750;11.308;2023-01-16T00:51:04;8.50;99.30
55135;DHT22;41031;44.750;11.308;2023-01-16T00:53:31;8.50;99.30
55135;DHT22;41031;44.750;11.308;2023-01-16T00:55:58;8.50;99.30
55135;DHT22;41031;44.750;11.308;2023-01-16T00:58:26;8.50;99.30
55135;DHT22;41031;44.750;11.308;2023-01-16T01:00:52;8.60;99.30
55135;DHT22;41031;44.750;11.308;2023-01-16T01:03:20;8.50;99.30
55135;DHT22;41031;44.750;11.308;2023-01-16T01:05:47;8.60;99.30
55135;DHT22;41031;44.750;11.308;2023-01-16T01:08:14;8.60;99.30
55135;DHT22;41031;44.750;11.308;2023-01-16T01:10:41;8.60;99.30
55135;DHT22;41031;44.750;11.308;2023-01-16T01:13:08;8.60;99.30
55135;DHT22;41031;44.750;11.308;2023-01-16T01:15:35;8.60;99.30
55135;DHT22;41031;44.750;11.308;2023-01-16T01:18:03;8.50;99.20
55135;DHT22;41031;44.750;11.308;2023-01-16T01:20:31;8.60;99.20
55135;DHT22;41031;44.750;11.308;2023-01-16T01:22:57;8.50;99.20
55135;DHT22;41031;44.750;11.308;2023-01-16T01:25:24;8.50;99.20
55135;DHT22;41031;44.750;11.308;2023-01-16T01:27:51;8.50;99.20
55135;DHT22;41031;44.750;11.308;2023-01-16T01:30:18;8.50;99.30
55135;DHT22;41031;44.750;11.308;2023-01-16T01:32:46;8.50;99.20
55135;DHT22;41031;44.750;11.308;2023-01-16T01:35:13;8.50;99.30
55135;DHT22;41031;44.750;11.308;2023-01-16T01:37:40;8.50;99.30
55135;DHT22;41031;44.750;11.308;2023-01-16T01:40:07;8.50;99.30
55135;DHT22;41031;44.750;11.308;2023-01-16T01:42:39;8.50;99.40
55135;DHT22;41031;44.750;11.308;2023-01-16T01:45:19;8.50;99.30
55135;DHT22;41031;44.750;11.308;2023-01-16T01:50:47;8.50;99.30
55135;DHT22;41031;44.750;11.308;2023-01-16T01:55:53;8.50;99.30
55135;DHT22;41031;44.750;11.308;2023-01-16T01:58:22;8.50;99.30
55135;DHT22;41031;44.750;11.308;2023-01-16T02:00:54;8.50;99.30
55135;DHT22;41031;44.750;11.308;2023-01-16T02:04:09;8.50;99.30
55135;DHT22;41031;44.750;11.308;2023-01-16T02:06:20;8.50;99.30
55135;DHT22;41031;44.750;11.308;2023-01-16T02:08:52;8.50;99.20
55135;DHT22;41031;44.750;11.308;2023-01-16T02:11:43;8.50;99.30
55135;DHT22;41031;44.750;11.308;2023-01-16T02:14:14;8.50;99.30
55135;DHT22;41031;44.750;11.308;2023-01-16T02:16:42;8.50;99.30
55135;DHT22;41031;44.750;11.308;2023-01-16T02:22:43;8.50;99.30
55135;DHT22;41031;44.750;11.308;2023-01-16T02:34:30;8.40;99.20
55135;DHT22;41031;44.750;11.308;2023-01-16T02:37:14;8.40;99.20
55135;DHT22;41031;44.750;11.308;2023-01-16T02:43:11;8.40;99.20
55135;DHT22;41031;44.750;11.308;2023-01-16T02:48:34;8.40;99.20
55135;DHT22;41031;44.750;11.308;2023-01-16T02:51:04;8.40;99.20
55135;DHT22;41031;44.750;11.308;2023-01-16T02:56:37;8.30;99.10
55135;DHT22;41031;44.750;11.308;2023-01-16T02:59:10;8.40;99.20
55135;DHT22;41031;44.750;11.308;2023-01-16T03:01:38;8.40;99.20
55135;DHT22;41031;44.750;11.308;2023-01-16T03:23:59;8.30;99.20
55135;DHT22;41031;44.750;11.308;2023-01-16T03:26:46;8.30;99.20
55135;DHT22;41031;44.750;11.308;2023-01-16T03:32:06;8.30;99.10
55135;DHT22;41031;44.750;11.308;2023-01-16T03:39:46;8.30;98.90
55135;DHT22;41031;44.750;11.308;2023-01-16T03:42:20;8.30;98.90
55135;DHT22;41031;44.750;11.308;2023-01-16T03:44:52;8.30;99.00
55135;DHT22;41031;44.750;11.308;2023-01-16T03:47:29;8.30;99.00
55135;DHT22;41031;44.750;11.308;2023-01-16T03:50:03;8.30;99.10
55135;DHT22;41031;44.750;11.308;2023-01-16T03:52:35;8.30;99.10
55135;DHT22;41031;44.750;11.308;2023-01-16T03:56:10;8.30;99.10
55135;DHT22;41031;44.750;11.308;2023-01-16T03:58:27;8.30;99.00
55135;DHT22;41031;44.750;11.308;2023-01-16T04:01:22;8.30;99.00
55135;DHT22;41031;44.750;11.308;2023-01-16T04:04:01;8.30;98.70
55135;DHT22;41031;44.750;11.308;2023-01-16T04:06:45;8.30;98.60
55135;DHT22;41031;44.750;11.308;2023-01-16T04:09:21;8.20;98.60
55135;DHT22;41031;44.750;11.308;2023-01-16T04:11:52;8.20;98.60
55135;DHT22;41031;44.750;11.308;2023-01-16T04:14:21;8.10;98.60
55135;DHT22;41031;44.750;11.308;2023-01-16T04:16:50;8.20;98.70
55135;DHT22;41031;44.750;11.308;2023-01-16T04:19:19;8.20;98.80
55135;DHT22;41031;44.750;11.308;2023-01-16T04:21:47;8.10;98.90
55135;DHT22;41031;44.750;11.308;2023-01-16T04:24:15;8.10;98.90
55135;DHT22;41031;44.750;11.308;2023-01-16T04:26:43;8.10;99.00
55135;DHT22;41031;44.750;11.308;2023-01-16T04:29:10;8.10;99.00
55135;DHT22;41031;44.750;11.308;2023-01-16T04:31:37;8.20;99.00
55135;DHT22;41031;44.750;11.308;2023-01-16T04:34:04;8.20;99.00
55135;DHT22;41031;44.750;11.308;2023-01-16T04:36:31;8.20;99.10
55135;DHT22;41031;44.750;11.308;2023-01-16T04:38:58;8.20;99.10
55135;DHT22;41031;44.750;11.308;2023-01-16T04:41:25;8.30;99.10
55135;DHT22;41031;44.750;11.308;2023-01-16T04:44:08;8.20;99.00
55135;DHT22;41031;44.750;11.308;2023-01-16T04:46:36;8.20;98.90
55135;DHT22;41031;44.750;11.308;2023-01-16T04:49:05;8.20;98.80
55135;DHT22;41031;44.750;11.308;2023-01-16T04:51:33;8.10;98.70
55135;DHT22;41031;44.750;11.308;2023-01-16T04:54:00;8.00;98.60
55135;DHT22;41031;44.750;11.308;2023-01-16T04:56:28;7.90;98.60
55135;DHT22;41031;44.750;11.308;2023-01-16T04:58:55;7.90;98.60
55135;DHT22;41031;44.750;11.308;2023-01-16T05:01:23;7.90;98.70
55135;DHT22;41031;44.750;11.308;2023-01-16T05:03:50;7.80;98.80
55135;DHT22;41031;44.750;11.308;2023-01-16T05:06:17;7.90;98.90
55135;DHT22;41031;44.750;11.308;2023-01-16T05:08:44;7.80;98.90
55135;DHT22;41031;44.750;11.308;2023-01-16T05:11:11;7.90;99.00
55135;DHT22;41031;44.750;11.308;2023-01-16T05:13:38;7.90;98.90
55135;DHT22;41031;44.750;11.308;2023-01-16T05:16:05;7.80;98.90
55135;DHT22;41031;44.750;11.308;2023-01-16T05:18:33;7.90;98.90
55135;DHT22;41031;44.750;11.308;2023-01-16T05:21:00;7.90;98.90
55135;DHT22;41031;44.750;11.308;2023-01-16T05:23:27;7.90;98.90
55135;DHT22;41031;44.750;11.308;2023-01-16T05:25:54;7.90;98.90
55135;DHT22;41031;44.750;11.308;2023-01-16T05:28:21;7.90;98.80
55135;DHT22;41031;44.750;11.308;2023-01-16T05:30:48;7.80;98.80
55135;DHT22;41031;44.750;11.308;2023-01-16T05:33:16;7.80;98.80
55135;DHT22;41031;44.750;11.308;2023-01-16T05:35:45;7.80;98.80
55135;DHT22;41031;44.750;11.308;2023-01-16T05:38:13;7.80;98.80
55135;DHT22;41031;44.750;11.308;2023-01-16T05:40:40;7.80;98.80
55135;DHT22;41031;44.750;11.308;2023-01-16T05:43:08;7.80;98.80
55135;DHT22;41031;44.750;11.308;2023-01-16T05:45:35;7.80;98.90
55135;DHT22;41031;44.750;11.308;2023-01-16T05:48:03;7.80;98.80
55135;DHT22;41031;44.750;11.308;2023-01-16T05:50:30;7.80;98.80
55135;DHT22;41031;44.750;11.308;2023-01-16T05:52:57;7.80;98.80
55135;DHT22;41031;44.750;11.308;2023-01-16T05:55:26;7.80;98.80
55135;DHT22;41031;44.750;11.308;2023-01-16T05:57:54;7.80;98.80
55135;DHT22;41031;44.750;11.308;2023-01-16T06:00:21;7.80;98.80
55135;DHT22;41031;44.750;11.308;2023-01-16T06:02:48;7.70;98.80
55135;DHT22;41031;44.750;11.308;2023-01-16T06:05:16;7.70;98.80
55135;DHT22;41031;44.750;11.308;2023-01-16T06:07:43;7.70;98.80
55135;DHT22;41031;44.750;11.308;2023-01-16T06:10:10;7.70;98.70
55135;DHT22;41031;44.750;11.308;2023-01-16T06:12:38;7.70;98.70
55135;DHT22;41031;44.750;11.308;2023-01-16T06:15:05;7.60;98.70
55135;DHT22;41031;44.750;11.308;2023-01-16T06:17:32;7.60;98.70
55135;DHT22;41031;44.750;11.308;2023-01-16T06:19:59;7.50;98.60
55135;DHT22;41031;44.750;11.308;2023-01-16T06:22:26;7.50;98.60
55135;DHT22;41031;44.750;11.308;2023-01-16T06:24:53;7.50;98.60
55135;DHT22;41031;44.750;11.308;2023-01-16T06:27:20;7.40;98.60
55135;DHT22;41031;44.750;11.308;2023-01-16T06:29:47;7.40;98.60
55135;DHT22;41031;44.750;11.308;2023-01-16T06:32:14;7.40;99.00
55135;DHT22;41031;44.750;11.308;2023-01-16T06:34:43;7.50;98.70
55135;DHT22;41031;44.750;11.308;2023-01-16T06:37:10;7.40;98.70
55135;DHT22;41031;44.750;11.308;2023-01-16T06:39:38;7.40;98.70
55135;DHT22;41031;44.750;11.308;2023-01-16T06:42:05;7.50;98.80
55135;DHT22;41031;44.750;11.308;2023-01-16T06:44:33;7.50;98.70
55135;DHT22;41031;44.750;11.308;2023-01-16T06:47:01;7.50;99.00
55135;DHT22;41031;44.750;11.308;2023-01-16T06:49:28;7.50;98.70
55135;DHT22;41031;44.750;11.308;2023-01-16T06:51:55;7.50;98.70
55135;DHT22;41031;44.750;11.308;2023-01-16T06:54:22;7.50;98.70
55135;DHT22;41031;44.750;11.308;2023-01-16T06:56:49;7.50;98.60
55135;DHT22;41031;44.750;11.308;2023-01-16T06:59:16;7.50;98.60
55135;DHT22;41031;44.750;11.308;2023-01-16T07:01:43;7.50;98.60
55135;DHT22;41031;44.750;11.308;2023-01-16T07:04:10;7.50;98.70
55135;DHT22;41031;44.750;11.308;2023-01-16T07:06:38;7.50;98.70
55135;DHT22;41031;44.750;11.308;2023-01-16T07:09:06;7.50;98.70
55135;DHT22;41031;44.750;11.308;2023-01-16T07:11:33;7.50;98.70
55135;DHT22;41031;44.750;11.308;2023-01-16T07:14:00;7.50;98.70
55135;DHT22;41031;44.750;11.308;2023-01-16T07:16:46;7.60;98.80
55135;DHT22;41031;44.750;11.308;2023-01-16T07:19:31;7.60;98.80
55135;DHT22;41031;44.750;11.308;2023-01-16T07:22:18;7.60;98.80
55135;DHT22;41031;44.750;11.308;2023-01-16T07:25:09;7.60;98.80
55135;DHT22;41031;44.750;11.308;2023-01-16T07:27:38;7.70;98.70
55135;DHT22;41031;44.750;11.308;2023-01-16T07:30:06;7.70;98.70
55135;DHT22;41031;44.750;11.308;2023-01-16T07:32:34;7.70;98.70
55135;DHT22;41031;44.750;11.308;2023-01-16T07:35:01;7.70;98.70
55135;DHT22;41031;44.750;11.308;2023-01-16T07:37:28;7.70;98.60
55135;DHT22;41031;44.750;11.308;2023-01-16T07:39:55;7.70;98.70
55135;DHT22;41031;44.750;11.308;2023-01-16T07:42:22;7.70;98.60
55135;DHT22;41031;44.750;11.308;2023-01-16T07:44:49;7.80;98.70
55135;DHT22;41031;44.750;11.308;2023-01-16T07:47:16;7.70;98.60
55135;DHT22;41031;44.750;11.308;2023-01-16T07:49:43;7.80;98.60
55135;DHT22;41031;44.750;11.308;2023-01-16T07:52:10;7.80;98.60
55135;DHT22;41031;44.750;11.308;2023-01-16T07:54:37;7.80;98.60
55135;DHT22;41031;44.750;11.308;2023-01-16T07:57:07;7.80;98.60
55135;DHT22;41031;44.750;11.308;2023-01-16T07:59:34;7.80;98.60
55135;DHT22;41031;44.750;11.308;2023-01-16T08:02:01;7.90;98.60
55135;DHT22;41031;44.750;11.308;2023-01-16T08:04:28;7.80;98.60
55135;DHT22;41031;44.750;11.308;2023-01-16T08:06:58;7.80;98.60
55135;DHT22;41031;44.750;11.308;2023-01-16T08:09:25;7.90;98.60
55135;DHT22;41031;44.750;11.308;2023-01-16T08:11:52;7.90;98.60
55135;DHT22;41031;44.750;11.308;2023-01-16T08:14:19;7.90;98.60
55135;DHT22;41031;44.750;11.308;2023-01-16T08:16:46;7.90;98.60
55135;DHT22;41031;44.750;11.308;2023-01-16T08:19:13;7.90;98.60
55135;DHT22;41031;44.750;11.308;2023-01-16T08:21:40;7.90;98.60
55135;DHT22;41031;44.750;11.308;2023-01-16T08:24:08;8.00;98.60
55135;DHT22;41031;44.750;11.308;2023-01-16T08:26:36;8.00;98.60
55135;DHT22;41031;44.750;11.308;2023-01-16T08:29:03;8.00;98.60
55135;DHT22;41031;44.750;11.308;2023-01-16T08:31:31;8.00;98.60
55135;DHT22;41031;44.750;11.308;2023-01-16T08:33:58;8.00;98.50
55135;DHT22;41031;44.750;11.308;2023-01-16T08:36:25;8.00;98.80
55135;DHT22;41031;44.750;11.308;2023-01-16T08:38:52;8.00;98.80
55135;DHT22;41031;44.750;11.308;2023-01-16T08:41:20;8.10;98.50
55135;DHT22;41031;44.750;11.308;2023-01-16T08:44:05;8.10;98.50
55135;DHT22;41031;44.750;11.308;2023-01-16T08:46:56;8.10;98.50
55135;DHT22;41031;44.750;11.308;2023-01-16T08:49:42;8.10;98.40
55135;DHT22;41031;44.750;11.308;2023-01-16T08:52:28;8.10;98.30
55135;DHT22;41031;44.750;11.308;2023-01-16T08:54:57;8.10;98.30
55135;DHT22;41031;44.750;11.308;2023-01-16T08:57:25;8.10;98.30
55135;DHT22;41031;44.750;11.308;2023-01-16T08:59:55;8.10;98.30
55135;DHT22;41031;44.750;11.308;2023-01-16T09:02:24;8.20;98.40
55135;DHT22;41031;44.750;11.308;2023-01-16T09:04:51;8.20;98.30
55135;DHT22;41031;44.750;11.308;2023-01-16T09:07:18;8.20;98.20
55135;DHT22;41031;44.750;11.308;2023-01-16T09:09:45;8.20;98.20
55135;DHT22;41031;44.750;11.308;2023-01-16T09:12:12;8.30;98.10
55135;DHT22;41031;44.750;11.308;2023-01-16T09:14:59;8.20;97.90
55135;DHT22;41031;44.750;11.308;2023-01-16T09:17:27;8.20;97.80
55135;DHT22;41031;44.750;11.308;2023-01-16T09:19:54;8.20;97.80
55135;DHT22;41031;44.750;11.308;2023-01-16T09:22:21;8.10;97.60
55135;DHT22;41031;44.750;11.308;2023-01-16T09:24:48;8.10;97.70
55135;DHT22;41031;44.750;11.308;2023-01-16T09:27:15;8.10;97.70
55135;DHT22;41031;44.750;11.308;2023-01-16T09:29:46;8.10;97.70
55135;DHT22;41031;44.750;11.308;2023-01-16T09:32:13;8.10;97.80
55135;DHT22;41031;44.750;11.308;2023-01-16T09:34:40;8.10;97.80
55135;DHT22;41031;44.750;11.308;2023-01-16T09:37:08;8.10;97.90
55135;DHT22;41031;44.750;11.308;2023-01-16T09:39:36;8.10;98.00
55135;DHT22;41031;44.750;11.308;2023-01-16T09:45:24;8.30;98.00
55135;DHT22;41031;44.750;11.308;2023-01-16T09:47:55;8.30;97.90
55135;DHT22;41031;44.750;11.308;2023-01-16T09:50:36;8.40;97.80
55135;DHT22;41031;44.750;11.308;2023-01-16T09:56:15;8.40;97.70
55135;DHT22;41031;44.750;11.308;2023-01-16T09:59:20;8.40;97.50
55135;DHT22;41031;44.750;11.308;2023-01-16T10:04:33;8.40;97.60
55135;DHT22;41031;44.750;11.308;2023-01-16T10:26:33;8.20;97.20
55135;DHT22;41031;44.750;11.308;2023-01-16T10:31:41;8.20;97.70
55135;DHT22;41031;44.750;11.308;2023-01-16T10:34:25;8.20;98.00
55135;DHT22;41031;44.750;11.308;2023-01-16T10:36:58;8.30;98.10
55135;DHT22;41031;44.750;11.308;2023-01-16T10:39:33;8.30;98.10
55135;DHT22;41031;44.750;11.308;2023-01-16T10:42:15;8.30;98.10
55135;DHT22;41031;44.750;11.308;2023-01-16T10:47:51;8.30;98.00
55135;DHT22;41031;44.750;11.308;2023-01-16T10:50:37;8.20;97.90
55135;DHT22;41031;44.750;11.308;2023-01-16T10:53:06;8.20;97.90
55135;DHT22;41031;44.750;11.308;2023-01-16T10:55:35;8.20;97.90
55135;DHT22;41031;44.750;11.308;2023-01-16T10:58:11;8.10;97.90
55135;DHT22;41031;44.750;11.308;2023-01-16T11:00:43;8.10;97.90
55135;DHT22;41031;44.750;11.308;2023-01-16T11:06:25;8.00;97.90
55135;DHT22;41031;44.750;11.308;2023-01-16T11:11:22;7.90;98.10
55135;DHT22;41031;44.750;11.308;2023-01-16T11:14:14;7.90;98.20
55135;DHT22;41031;44.750;11.308;2023-01-16T11:20:31;7.90;98.50
55135;DHT22;41031;44.750;11.308;2023-01-16T11:23:03;7.80;98.40
55135;DHT22;41031;44.750;11.308;2023-01-16T11:25:32;7.80;98.50
55135;DHT22;41031;44.750;11.308;2023-01-16T11:28:02;7.80;98.60
55135;DHT22;41031;44.750;11.308;2023-01-16T11:30:33;7.80;98.60
55135;DHT22;41031;44.750;11.308;2023-01-16T11:33:03;7.80;98.70
55135;DHT22;41031;44.750;11.308;2023-01-16T11:35:36;7.80;98.90
55135;DHT22;41031;44.750;11.308;2023-01-16T11:38:05;7.80;99.00
55135;DHT22;41031;44.750;11.308;2023-01-16T11:40:46;7.80;99.00
55135;DHT22;41031;44.750;11.308;2023-01-16T11:43:23;7.80;99.00
55135;DHT22;41031;44.750;11.308;2023-01-16T11:49:02;7.80;98.90
55135;DHT22;41031;44.750;11.308;2023-01-16T11:51:36;7.80;99.00
55135;DHT22;41031;44.750;11.308;2023-01-16T11:54:14;7.80;99.10
55135;DHT22;41031;44.750;11.308;2023-01-16T12:05:01;7.90;99.30
55135;DHT22;41031;44.750;11.308;2023-01-16T12:11:05;7.90;99.30
55135;DHT22;41031;44.750;11.308;2023-01-16T12:14:44;7.90;99.30
55135;DHT22;41031;44.750;11.308;2023-01-16T12:24:44;7.90;99.40
55135;DHT22;41031;44.750;11.308;2023-01-16T12:38:12;7.90;99.30
55135;DHT22;41031;44.750;11.308;2023-01-16T12:43:50;7.80;99.30
55135;DHT22;41031;44.750;11.308;2023-01-16T12:46:39;7.80;99.40
55135;DHT22;41031;44.750;11.308;2023-01-16T12:58:02;7.90;99.60
55135;DHT22;41031;44.750;11.308;2023-01-16T13:00:38;7.90;99.70
55135;DHT22;41031;44.750;11.308;2023-01-16T13:05:49;8.10;99.90
55135;DHT22;41031;44.750;11.308;2023-01-16T13:08:45;8.20;99.90
55135;DHT22;41031;44.750;11.308;2023-01-16T13:11:24;8.20;99.80
55135;DHT22;41031;44.750;11.308;2023-01-16T13:14:30;8.20;99.70
55135;DHT22;41031;44.750;11.308;2023-01-16T13:17:09;8.30;99.50
55135;DHT22;41031;44.750;11.308;2023-01-16T13:19:40;8.30;99.50
55135;DHT22;41031;44.750;11.308;2023-01-16T13:22:27;8.40;99.60
55135;DHT22;41031;44.750;11.308;2023-01-16T13:25:07;8.40;99.40
55135;DHT22;41031;44.750;11.308;2023-01-16T13:27:48;8.40;99.10
55135;DHT22;41031;44.750;11.308;2023-01-16T13:30:18;8.30;99.00
55135;DHT22;41031;44.750;11.308;2023-01-16T13:33:26;8.30;99.00
55135;DHT22;41031;44.750;11.308;2023-01-16T13:38:54;8.30;99.20
55135;DHT22;41031;44.750;11.308;2023-01-16T13:41:35;8.30;99.20
55135;DHT22;41031;44.750;11.308;2023-01-16T13:44:19;8.30;99.20
55135;DHT22;41031;44.750;11.308;2023-01-16T13:47:12;8.20;99.20
55135;DHT22;41031;44.750;11.308;2023-01-16T13:49:41;8.20;99.10
55135;DHT22;41031;44.750;11.308;2023-01-16T13:52:21;8.20;99.20
55135;DHT22;41031;44.750;11.308;2023-01-16T13:54:50;8.20;99.30
55135;DHT22;41031;44.750;11.308;2023-01-16T13:57:21;8.20;99.40
55135;DHT22;41031;44.750;11.308;2023-01-16T13:59:50;8.20;99.50
55135;DHT22;41031;44.750;11.308;2023-01-16T14:13:42;8.70;99.50
55135;DHT22;41031;44.750;11.308;2023-01-16T14:19:00;8.80;99.20
55135;DHT22;41031;44.750;11.308;2023-01-16T14:24:16;8.70;98.90
55135;DHT22;41031;44.750;11.308;2023-01-16T14:26:59;8.60;98.90
55135;DHT22;41031;44.750;11.308;2023-01-16T14:29:35;8.60;98.90
55135;DHT22;41031;44.750;11.308;2023-01-16T14:34:38;8.50;99.00
55135;DHT22;41031;44.750;11.308;2023-01-16T14:37:20;8.50;99.20
55135;DHT22;41031;44.750;11.308;2023-01-16T14:39:50;8.50;99.20
55135;DHT22;41031;44.750;11.308;2023-01-16T14:42:28;8.40;99.30
55135;DHT22;41031;44.750;11.308;2023-01-16T14:45:32;8.50;99.40
55135;DHT22;41031;44.750;11.308;2023-01-16T14:51:10;8.50;99.50
55135;DHT22;41031;44.750;11.308;2023-01-16T14:57:00;8.50;99.40
55135;DHT22;41031;44.750;11.308;2023-01-16T14:59:34;8.50;99.40
55135;DHT22;41031;44.750;11.308;2023-01-16T15:02:31;8.50;99.40
55135;DHT22;41031;44.750;11.308;2023-01-16T15:07:46;8.40;99.40
55135;DHT22;41031;44.750;11.308;2023-01-16T15:12:52;8.40;99.50
55135;DHT22;41031;44.750;11.308;2023-01-16T15:15:26;8.40;99.50
55135;DHT22;41031;44.750;11.308;2023-01-16T15:17:56;8.40;99.60
55135;DHT22;41031;44.750;11.308;2023-01-16T15:20:43;8.40;99.60
55135;DHT22;41031;44.750;11.308;2023-01-16T15:31:17;8.40;99.80
55135;DHT22;41031;44.750;11.308;2023-01-16T15:33:56;8.50;99.80
55135;DHT22;41031;44.750;11.308;2023-01-16T15:36:33;8.50;99.80
55135;DHT22;41031;44.750;11.308;2023-01-16T15:42:04;8.60;99.50
55135;DHT22;41031;44.750;11.308;2023-01-16T15:44:51;8.60;99.30
55135;DHT22;41031;44.750;11.308;2023-01-16T16:02:49;8.70;98.70
55135;DHT22;41031;44.750;11.308;2023-01-16T16:05:18;9.10;98.10
55135;DHT22;41031;44.750;11.308;2023-01-16T16:07:49;9.10;97.90
55135;DHT22;41031;44.750;11.308;2023-01-16T16:10:17;9.10;97.80
55135;DHT22;41031;44.750;11.308;2023-01-16T16:13:05;9.00;97.50
55135;DHT22;41031;44.750;11.308;2023-01-16T16:15:33;9.00;97.40
55135;DHT22;41031;44.750;11.308;2023-01-16T16:18:19;8.90;97.40
55135;DHT22;41031;44.750;11.308;2023-01-16T16:20:49;8.90;97.40
55135;DHT22;41031;44.750;11.308;2023-01-16T16:25:58;8.80;97.40
55135;DHT22;41031;44.750;11.308;2023-01-16T16:31:28;8.80;97.40
55135;DHT22;41031;44.750;11.308;2023-01-16T16:36:25;8.70;97.40
55135;DHT22;41031;44.750;11.308;2023-01-16T16:38:54;8.70;97.40
55135;DHT22;41031;44.750;11.308;2023-01-16T16:44:24;8.70;97.40
55135;DHT22;41031;44.750;11.308;2023-01-16T16:46:56;8.60;97.40
55135;DHT22;41031;44.750;11.308;2023-01-16T16:51:50;8.60;97.40
55135;DHT22;41031;44.750;11.308;2023-01-16T16:54:18;8.60;97.50
55135;DHT22;41031;44.750;11.308;2023-01-16T16:56:53;8.60;97.50
55135;DHT22;41031;44.750;11.308;2023-01-16T16:59:27;8.50;97.40
55135;DHT22;41031;44.750;11.308;2023-01-16T17:01:57;8.50;97.50
55135;DHT22;41031;44.750;11.308;2023-01-16T17:04:30;8.50;97.50
55135;DHT22;41031;44.750;11.308;2023-01-16T17:06:57;8.50;97.50
55135;DHT22;41031;44.750;11.308;2023-01-16T17:09:25;8.50;97.60
55135;DHT22;41031;44.750;11.308;2023-01-16T17:11:58;8.50;97.60
55135;DHT22;41031;44.750;11.308;2023-01-16T17:14:26;8.40;97.70
55135;DHT22;41031;44.750;11.308;2023-01-16T17:16:53;8.50;97.80
55135;DHT22;41031;44.750;11.308;2023-01-16T17:19:29;8.50;97.80
55135;DHT22;41031;44.750;11.308;2023-01-16T17:21:57;8.50;97.80
55135;DHT22;41031;44.750;11.308;2023-01-16T17:24:24;8.50;97.80
55135;DHT22;41031;44.750;11.308;2023-01-16T17:26:51;8.50;97.70
55135;DHT22;41031;44.750;11.308;2023-01-16T17:29:18;8.50;97.70
55135;DHT22;41031;44.750;11.308;2023-01-16T17:31:47;8.50;97.70
55135;DHT22;41031;44.750;11.308;2023-01-16T17:34:16;8.50;97.60
55135;DHT22;41031;44.750;11.308;2023-01-16T17:36:44;8.50;97.60
55135;DHT22;41031;44.750;11.308;2023-01-16T17:39:13;8.50;97.70
55135;DHT22;41031;44.750;11.308;2023-01-16T17:41:40;8.40;97.60
55135;DHT22;41031;44.750;11.308;2023-01-16T17:47:00;8.40;97.70
55135;DHT22;41031;44.750;11.308;2023-01-16T17:49:27;8.40;97.70
55135;DHT22;41031;44.750;11.308;2023-01-16T17:51:54;8.40;97.60
55135;DHT22;41031;44.750;11.308;2023-01-16T17:54:21;8.40;97.60
55135;DHT22;41031;44.750;11.308;2023-01-16T17:57:06;8.40;97.60
55135;DHT22;41031;44.750;11.308;2023-01-16T17:59:33;8.30;97.60
55135;DHT22;41031;44.750;11.308;2023-01-16T18:02:00;8.30;97.60
55135;DHT22;41031;44.750;11.308;2023-01-16T18:04:27;8.20;97.60
55135;DHT22;41031;44.750;11.308;2023-01-16T18:07:00;8.20;97.60
55135;DHT22;41031;44.750;11.308;2023-01-16T18:09:30;8.20;97.50
55135;DHT22;41031;44.750;11.308;2023-01-16T18:11:58;8.10;97.40
55135;DHT22;41031;44.750;11.308;2023-01-16T18:14:43;8.10;97.30
55135;DHT22;41031;44.750;11.308;2023-01-16T18:17:29;8.00;97.30
55135;DHT22;41031;44.750;11.308;2023-01-16T18:19:57;8.00;97.30
55135;DHT22;41031;44.750;11.308;2023-01-16T18:22:31;7.90;97.30
55135;DHT22;41031;44.750;11.308;2023-01-16T18:25:01;7.90;97.30
55135;DHT22;41031;44.750;11.308;2023-01-16T18:27:29;7.80;97.30
55135;DHT22;41031;44.750;11.308;2023-01-16T18:29:56;7.80;97.30
55135;DHT22;41031;44.750;11.308;2023-01-16T18:32:23;7.70;97.40
55135;DHT22;41031;44.750;11.308;2023-01-16T18:35:01;7.70;97.50
55135;DHT22;41031;44.750;11.308;2023-01-16T18:40:26;7.70;97.60
55135;DHT22;41031;44.750;11.308;2023-01-16T18:43:12;7.70;97.70
55135;DHT22;41031;44.750;11.308;2023-01-16T18:45:57;7.70;97.70
55135;DHT22;41031;44.750;11.308;2023-01-16T18:48:43;7.70;97.70
55135;DHT22;41031;44.750;11.308;2023-01-16T18:51:28;7.70;97.60
55135;DHT22;41031;44.750;11.308;2023-01-16T18:54:16;7.70;97.50
55135;DHT22;41031;44.750;11.308;2023-01-16T18:57:17;7.70;97.50
55135;DHT22;41031;44.750;11.308;2023-01-16T19:00:15;7.70;97.50
55135;DHT22;41031;44.750;11.308;2023-01-16T19:03:01;7.70;97.30
55135;DHT22;41031;44.750;11.308;2023-01-16T19:05:28;7.70;97.40
55135;DHT22;41031;44.750;11.308;2023-01-16T19:08:00;7.60;97.50
55135;DHT22;41031;44.750;11.308;2023-01-16T19:10:32;7.70;97.70
55135;DHT22;41031;44.750;11.308;2023-01-16T19:13:00;7.70;98.10
55135;DHT22;41031;44.750;11.308;2023-01-16T19:15:29;7.70;97.90
55135;DHT22;41031;44.750;11.308;2023-01-16T19:17:56;7.70;97.90
55135;DHT22;41031;44.750;11.308;2023-01-16T19:20:24;7.70;97.80
55135;DHT22;41031;44.750;11.308;2023-01-16T19:22:51;7.70;97.80
55135;DHT22;41031;44.750;11.308;2023-01-16T19:25:19;7.70;97.80
55135;DHT22;41031;44.750;11.308;2023-01-16T19:27:46;7.70;97.80
55135;DHT22;41031;44.750;11.308;2023-01-16T19:30:13;7.70;97.80
55135;DHT22;41031;44.750;11.308;2023-01-16T19:32:40;7.70;97.80
55135;DHT22;41031;44.750;11.308;2023-01-16T19:35:09;7.70;97.70
55135;DHT22;41031;44.750;11.308;2023-01-16T19:37:36;7.60;97.60
55135;DHT22;41031;44.750;11.308;2023-01-16T19:40:15;7.60;97.50
55135;DHT22;41031;44.750;11.308;2023-01-16T19:42:44;7.50;97.40
55135;DHT22;41031;44.750;11.308;2023-01-16T19:45:46;7.50;97.50
55135;DHT22;41031;44.750;11.308;2023-01-16T19:48:32;7.50;97.50